sensor_id;sensor_type;location;lat;lon;timestamp;P1;durP1;ratioP1;P2;durP2;ratioP2
37049;SDS011;22958;51.232;6.826;2023-09-18T00:01:03;16.13;;;7.03;;
37049;SDS011;22958;51.232;6.826;2023-09-18T00:03:30;18.20;;;7.00;;
37049;SDS011;22958;51.232;6.826;2023-09-18T00:05:56;14.00;;;7.17;;
37049;SDS011;22958;51.232;6.826;2023-09-18T00:08:21;15.07;;;7.00;;
37049;SDS011;22958;51.232;6.826;2023-09-18T00:10:48;16.98;;;7.38;;
37049;SDS011;22958;51.232;6.826;2023-09-18T00:13:16;15.32;;;7.13;;
37049;SDS011;22958;51.232;6.826;2023-09-18T00:15:41;12.63;;;6.72;;
37049;SDS011;22958;51.232;6.826;2023-09-18T00:18:09;15.07;;;7.45;;
37049;SDS011;22958;51.232;6.826;2023-09-18T00:20:35;13.00;;;6.88;;
37049;SDS011;22958;51.232;6.826;2023-09-18T00:23:01;17.20;;;7.33;;
37049;SDS011;22958;51.232;6.826;2023-09-18T00:25:27;12.60;;;6.93;;
37049;SDS011;22958;51.232;6.826;2023-09-18T00:27:53;19.73;;;7.63;;
37049;SDS011;22958;51.232;6.826;2023-09-18T00:30:18;12.53;;;7.43;;
37049;SDS011;22958;51.232;6.826;2023-09-18T00:32:44;14.43;;;7.67;;
37049;SDS011;22958;51.232;6.826;2023-09-18T00:35:11;17.13;;;7.85;;
37049;SDS011;22958;51.232;6.826;2023-09-18T00:37:37;11.07;;;7.27;;
37049;SDS011;22958;51.232;6.826;2023-09-18T00:40:05;20.25;;;7.22;;
37049;SDS011;22958;51.232;6.826;2023-09-18T00:42:31;15.75;;;8.15;;
37049;SDS011;22958;51.232;6.826;2023-09-18T00:44:57;19.73;;;7.33;;
37049;SDS011;22958;51.232;6.826;2023-09-18T00:47:22;22.63;;;7.70;;
37049;SDS011;22958;51.232;6.826;2023-09-18T00:49:48;17.70;;;7.87;;
37049;SDS011;22958;51.232;6.826;2023-09-18T00:52:17;14.13;;;7.95;;
37049;SDS011;22958;51.232;6.826;2023-09-18T00:54:44;17.17;;;7.47;;
37049;SDS011;22958;51.232;6.826;2023-09-18T00:57:10;19.63;;;7.38;;
37049;SDS011;22958;51.232;6.826;2023-09-18T00:59:37;16.85;;;6.95;;
37049;SDS011;22958;51.232;6.826;2023-09-18T01:02:03;13.90;;;7.30;;
37049;SDS011;22958;51.232;6.826;2023-09-18T01:04:28;17.03;;;7.27;;
37049;SDS011;22958;51.232;6.826;2023-09-18T01:06:55;19.23;;;8.02;;
37049;SDS011;22958;51.232;6.826;2023-09-18T01:09:23;16.30;;;7.18;;
37049;SDS011;22958;51.232;6.826;2023-09-18T01:17:13;15.27;;;7.90;;
37049;SDS011;22958;51.232;6.826;2023-09-18T01:19:41;19.30;;;7.30;;
37049;SDS011;22958;51.232;6.826;2023-09-18T01:22:12;14.50;;;7.70;;
37049;SDS011;22958;51.232;6.826;2023-09-18T01:24:39;17.85;;;7.53;;
37049;SDS011;22958;51.232;6.826;2023-09-18T01:29:39;15.52;;;7.07;;
37049;SDS011;22958;51.232;6.826;2023-09-18T01:32:05;16.73;;;7.22;;
37049;SDS011;22958;51.232;6.826;2023-09-18T01:34:33;17.80;;;6.93;;
37049;SDS011;22958;51.232;6.826;2023-09-18T01:37:01;22.38;;;6.97;;
37049;SDS011;22958;51.232;6.826;2023-09-18T01:39:29;13.32;;;6.60;;
37049;SDS011;22958;51.232;6.826;2023-09-18T01:41:58;14.82;;;7.28;;
37049;SDS011;22958;51.232;6.826;2023-09-18T01:44:26;13.85;;;6.65;;
37049;SDS011;22958;51.232;6.826;2023-09-18T01:46:52;15.90;;;7.10;;
37049;SDS011;22958;51.232;6.826;2023-09-18T01:49:32;15.68;;;6.95;;
37049;SDS011;22958;51.232;6.826;2023-09-18T01:51:59;14.52;;;7.22;;
37049;SDS011;22958;51.232;6.826;2023-09-18T01:54:26;15.32;;;6.13;;
37049;SDS011;22958;51.232;6.826;2023-09-18T01:56:52;19.83;;;6.93;;
37049;SDS011;22958;51.232;6.826;2023-09-18T01:59:21;16.13;;;6.93;;
37049;SDS011;22958;51.232;6.826;2023-09-18T02:01:47;16.35;;;6.60;;
37049;SDS011;22958;51.232;6.826;2023-09-18T02:04:13;13.10;;;6.53;;
37049;SDS011;22958;51.232;6.826;2023-09-18T02:06:39;16.67;;;7.63;;
37049;SDS011;22958;51.232;6.826;2023-09-18T02:09:05;16.90;;;6.70;;
37049;SDS011;22958;51.232;6.826;2023-09-18T02:11:37;16.27;;;7.60;;
37049;SDS011;22958;51.232;6.826;2023-09-18T02:14:04;14.70;;;6.15;;
37049;SDS011;22958;51.232;6.826;2023-09-18T02:18:58;15.55;;;7.05;;
37049;SDS011;22958;51.232;6.826;2023-09-18T02:21:24;22.27;;;6.27;;
37049;SDS011;22958;51.232;6.826;2023-09-18T02:23:50;23.23;;;7.72;;
37049;SDS011;22958;51.232;6.826;2023-09-18T02:26:16;18.85;;;6.93;;
37049;SDS011;22958;51.232;6.826;2023-09-18T02:28:43;17.92;;;6.78;;
37049;SDS011;22958;51.232;6.826;2023-09-18T02:31:08;16.08;;;7.00;;
37049;SDS011;22958;51.232;6.826;2023-09-18T02:33:34;21.10;;;7.60;;
37049;SDS011;22958;51.232;6.826;2023-09-18T02:36:00;21.57;;;7.10;;
37049;SDS011;22958;51.232;6.826;2023-09-18T02:38:26;21.23;;;7.33;;
37049;SDS011;22958;51.232;6.826;2023-09-18T02:40:52;15.15;;;7.20;;
37049;SDS011;22958;51.232;6.826;2023-09-18T02:43:19;15.27;;;6.78;;
37049;SDS011;22958;51.232;6.826;2023-09-18T02:45:45;15.32;;;7.57;;
37049;SDS011;22958;51.232;6.826;2023-09-18T02:48:11;19.55;;;7.05;;
37049;SDS011;22958;51.232;6.826;2023-09-18T02:50:36;20.45;;;7.63;;
37049;SDS011;22958;51.232;6.826;2023-09-18T02:53:02;15.37;;;7.87;;
37049;SDS011;22958;51.232;6.826;2023-09-18T02:55:28;17.60;;;6.83;;
37049;SDS011;22958;51.232;6.826;2023-09-18T02:57:54;17.55;;;7.35;;
37049;SDS011;22958;51.232;6.826;2023-09-18T03:00:19;12.53;;;6.40;;
37049;SDS011;22958;51.232;6.826;2023-09-18T03:02:46;18.48;;;6.90;;
37049;SDS011;22958;51.232;6.826;2023-09-18T03:05:11;21.50;;;7.27;;
37049;SDS011;22958;51.232;6.826;2023-09-18T03:07:37;23.53;;;7.37;;
37049;SDS011;22958;51.232;6.826;2023-09-18T03:10:02;16.00;;;6.43;;
37049;SDS011;22958;51.232;6.826;2023-09-18T03:12:29;13.77;;;7.20;;
37049;SDS011;22958;51.232;6.826;2023-09-18T03:14:55;16.43;;;7.10;;
37049;SDS011;22958;51.232;6.826;2023-09-18T03:17:21;17.83;;;7.93;;
37049;SDS011;22958;51.232;6.826;2023-09-18T03:19:49;12.63;;;6.83;;
37049;SDS011;22958;51.232;6.826;2023-09-18T03:22:15;13.85;;;6.60;;
37049;SDS011;22958;51.232;6.826;2023-09-18T03:24:41;18.27;;;7.65;;
37049;SDS011;22958;51.232;6.826;2023-09-18T03:27:06;11.40;;;6.93;;
37049;SDS011;22958;51.232;6.826;2023-09-18T03:29:32;13.70;;;6.73;;
37049;SDS011;22958;51.232;6.826;2023-09-18T03:31:57;20.50;;;6.87;;
37049;SDS011;22958;51.232;6.826;2023-09-18T03:34:24;20.45;;;8.02;;
37049;SDS011;22958;51.232;6.826;2023-09-18T03:36:53;16.33;;;7.28;;
37049;SDS011;22958;51.232;6.826;2023-09-18T03:39:19;19.23;;;8.03;;
37049;SDS011;22958;51.232;6.826;2023-09-18T03:41:45;18.27;;;6.40;;
37049;SDS011;22958;51.232;6.826;2023-09-18T03:44:10;21.02;;;7.70;;
37049;SDS011;22958;51.232;6.826;2023-09-18T03:46:36;13.30;;;6.40;;
37049;SDS011;22958;51.232;6.826;2023-09-18T03:49:02;14.60;;;5.97;;
37049;SDS011;22958;51.232;6.826;2023-09-18T03:51:28;16.57;;;6.43;;
37049;SDS011;22958;51.232;6.826;2023-09-18T03:56:20;18.67;;;6.60;;
37049;SDS011;22958;51.232;6.826;2023-09-18T04:01:14;18.25;;;6.65;;
37049;SDS011;22958;51.232;6.826;2023-09-18T04:03:42;17.95;;;6.55;;
37049;SDS011;22958;51.232;6.826;2023-09-18T04:06:08;13.00;;;6.60;;
37049;SDS011;22958;51.232;6.826;2023-09-18T04:08:33;21.27;;;6.57;;
37049;SDS011;22958;51.232;6.826;2023-09-18T04:10:59;11.90;;;6.25;;
37049;SDS011;22958;51.232;6.826;2023-09-18T04:13:25;16.47;;;6.43;;
37049;SDS011;22958;51.232;6.826;2023-09-18T04:15:51;18.93;;;5.90;;
37049;SDS011;22958;51.232;6.826;2023-09-18T04:18:21;19.80;;;7.47;;
37049;SDS011;22958;51.232;6.826;2023-09-18T04:20:47;16.30;;;6.00;;
37049;SDS011;22958;51.232;6.826;2023-09-18T04:23:22;16.02;;;5.90;;
37049;SDS011;22958;51.232;6.826;2023-09-18T04:25:49;19.45;;;6.65;;
37049;SDS011;22958;51.232;6.826;2023-09-18T04:28:16;15.90;;;6.22;;
37049;SDS011;22958;51.232;6.826;2023-09-18T04:30:42;18.50;;;6.80;;
37049;SDS011;22958;51.232;6.826;2023-09-18T04:33:08;17.23;;;7.38;;
37049;SDS011;22958;51.232;6.826;2023-09-18T04:35:34;15.43;;;6.70;;
37049;SDS011;22958;51.232;6.826;2023-09-18T04:37:59;18.67;;;7.47;;
37049;SDS011;22958;51.232;6.826;2023-09-18T04:40:25;13.63;;;6.23;;
37049;SDS011;22958;51.232;6.826;2023-09-18T04:42:57;18.88;;;6.45;;
37049;SDS011;22958;51.232;6.826;2023-09-18T04:45:23;17.27;;;6.47;;
37049;SDS011;22958;51.232;6.826;2023-09-18T04:47:52;14.60;;;6.55;;
37049;SDS011;22958;51.232;6.826;2023-09-18T04:50:19;18.75;;;7.03;;
37049;SDS011;22958;51.232;6.826;2023-09-18T04:52:44;20.13;;;7.43;;
37049;SDS011;22958;51.232;6.826;2023-09-18T04:55:10;18.53;;;6.87;;
37049;SDS011;22958;51.232;6.826;2023-09-18T04:57:36;21.65;;;6.65;;
37049;SDS011;22958;51.232;6.826;2023-09-18T05:02:32;16.35;;;7.03;;
37049;SDS011;22958;51.232;6.826;2023-09-18T05:04:59;21.15;;;6.88;;
37049;SDS011;22958;51.232;6.826;2023-09-18T05:07:25;15.57;;;6.22;;
37049;SDS011;22958;51.232;6.826;2023-09-18T05:09:51;27.20;;;6.25;;
37049;SDS011;22958;51.232;6.826;2023-09-18T05:12:16;13.67;;;5.77;;
37049;SDS011;22958;51.232;6.826;2023-09-18T05:14:42;19.87;;;7.13;;
37049;SDS011;22958;51.232;6.826;2023-09-18T05:17:09;18.27;;;5.93;;
37049;SDS011;22958;51.232;6.826;2023-09-18T05:19:38;19.42;;;6.00;;
37049;SDS011;22958;51.232;6.826;2023-09-18T05:22:04;22.00;;;5.83;;
37049;SDS011;22958;51.232;6.826;2023-09-18T05:24:29;19.33;;;5.10;;
37049;SDS011;22958;51.232;6.826;2023-09-18T05:26:55;17.80;;;5.53;;
37049;SDS011;22958;51.232;6.826;2023-09-18T05:29:21;23.33;;;5.70;;
37049;SDS011;22958;51.232;6.826;2023-09-18T05:31:46;23.67;;;6.00;;
37049;SDS011;22958;51.232;6.826;2023-09-18T05:34:12;17.07;;;5.60;;
37049;SDS011;22958;51.232;6.826;2023-09-18T05:36:37;17.23;;;5.67;;
37049;SDS011;22958;51.232;6.826;2023-09-18T05:39:03;26.92;;;5.45;;
37049;SDS011;22958;51.232;6.826;2023-09-18T05:41:29;17.10;;;5.05;;
37049;SDS011;22958;51.232;6.826;2023-09-18T05:43:56;19.83;;;6.33;;
37049;SDS011;22958;51.232;6.826;2023-09-18T05:46:22;14.57;;;4.95;;
37049;SDS011;22958;51.232;6.826;2023-09-18T05:48:47;23.77;;;5.23;;
37049;SDS011;22958;51.232;6.826;2023-09-18T05:51:13;13.97;;;4.37;;
37049;SDS011;22958;51.232;6.826;2023-09-18T05:53:38;18.00;;;5.43;;
37049;SDS011;22958;51.232;6.826;2023-09-18T05:56:04;17.60;;;5.20;;
37049;SDS011;22958;51.232;6.826;2023-09-18T05:58:31;13.85;;;4.82;;
37049;SDS011;22958;51.232;6.826;2023-09-18T06:00:58;21.40;;;5.38;;
37049;SDS011;22958;51.232;6.826;2023-09-18T06:03:25;19.60;;;5.05;;
37049;SDS011;22958;51.232;6.826;2023-09-18T06:05:56;18.58;;;5.57;;
37049;SDS011;22958;51.232;6.826;2023-09-18T06:08:21;12.13;;;5.33;;
37049;SDS011;22958;51.232;6.826;2023-09-18T06:10:48;21.05;;;4.75;;
37049;SDS011;22958;51.232;6.826;2023-09-18T06:13:14;12.77;;;4.70;;
37049;SDS011;22958;51.232;6.826;2023-09-18T06:15:39;12.73;;;4.83;;
37049;SDS011;22958;51.232;6.826;2023-09-18T06:18:05;20.43;;;4.90;;
37049;SDS011;22958;51.232;6.826;2023-09-18T06:20:31;11.70;;;4.38;;
37049;SDS011;22958;51.232;6.826;2023-09-18T06:22:57;13.93;;;4.43;;
37049;SDS011;22958;51.232;6.826;2023-09-18T06:25:22;17.50;;;4.80;;
37049;SDS011;22958;51.232;6.826;2023-09-18T06:27:48;27.60;;;4.60;;
37049;SDS011;22958;51.232;6.826;2023-09-18T06:30:13;20.40;;;4.17;;
37049;SDS011;22958;51.232;6.826;2023-09-18T06:32:39;12.13;;;3.90;;
37049;SDS011;22958;51.232;6.826;2023-09-18T06:35:05;13.27;;;3.20;;
37049;SDS011;22958;51.232;6.826;2023-09-18T06:37:31;14.88;;;4.00;;
37049;SDS011;22958;51.232;6.826;2023-09-18T06:39:56;12.40;;;3.80;;
37049;SDS011;22958;51.232;6.826;2023-09-18T06:42:23;16.67;;;3.90;;
37049;SDS011;22958;51.232;6.826;2023-09-18T06:44:48;15.30;;;4.00;;
37049;SDS011;22958;51.232;6.826;2023-09-18T06:47:14;21.60;;;4.10;;
37049;SDS011;22958;51.232;6.826;2023-09-18T06:49:41;11.55;;;2.92;;
37049;SDS011;22958;51.232;6.826;2023-09-18T06:52:07;13.88;;;3.33;;
37049;SDS011;22958;51.232;6.826;2023-09-18T06:54:33;15.15;;;3.50;;
37049;SDS011;22958;51.232;6.826;2023-09-18T06:56:59;17.83;;;3.80;;
37049;SDS011;22958;51.232;6.826;2023-09-18T06:59:24;11.63;;;3.03;;
37049;SDS011;22958;51.232;6.826;2023-09-18T07:01:50;12.70;;;3.17;;
37049;SDS011;22958;51.232;6.826;2023-09-18T07:04:15;13.70;;;3.20;;
37049;SDS011;22958;51.232;6.826;2023-09-18T07:06:41;12.43;;;3.53;;
37049;SDS011;22958;51.232;6.826;2023-09-18T07:09:06;10.07;;;2.83;;
37049;SDS011;22958;51.232;6.826;2023-09-18T07:11:33;17.85;;;3.47;;
37049;SDS011;22958;51.232;6.826;2023-09-18T07:13:59;18.88;;;3.67;;
37049;SDS011;22958;51.232;6.826;2023-09-18T07:16:25;15.35;;;3.28;;
37049;SDS011;22958;51.232;6.826;2023-09-18T07:18:51;8.10;;;3.47;;
37049;SDS011;22958;51.232;6.826;2023-09-18T07:21:17;13.77;;;3.00;;
37049;SDS011;22958;51.232;6.826;2023-09-18T07:23:42;17.60;;;2.90;;
37049;SDS011;22958;51.232;6.826;2023-09-18T07:26:10;9.18;;;2.85;;
37049;SDS011;22958;51.232;6.826;2023-09-18T07:28:36;14.23;;;2.83;;
37049;SDS011;22958;51.232;6.826;2023-09-18T07:31:04;12.90;;;2.83;;
37049;SDS011;22958;51.232;6.826;2023-09-18T07:33:31;9.82;;;2.63;;
37049;SDS011;22958;51.232;6.826;2023-09-18T07:35:56;9.47;;;3.07;;
37049;SDS011;22958;51.232;6.826;2023-09-18T07:38:22;12.45;;;3.22;;
37049;SDS011;22958;51.232;6.826;2023-09-18T07:40:48;18.77;;;2.90;;
37049;SDS011;22958;51.232;6.826;2023-09-18T07:43:13;11.60;;;3.27;;
37049;SDS011;22958;51.232;6.826;2023-09-18T07:45:39;9.87;;;3.00;;
37049;SDS011;22958;51.232;6.826;2023-09-18T07:48:08;9.80;;;2.65;;
37049;SDS011;22958;51.232;6.826;2023-09-18T07:50:34;9.45;;;2.67;;
37049;SDS011;22958;51.232;6.826;2023-09-18T07:53:00;8.65;;;2.28;;
37049;SDS011;22958;51.232;6.826;2023-09-18T07:55:27;10.40;;;2.42;;
37049;SDS011;22958;51.232;6.826;2023-09-18T07:57:52;14.60;;;2.95;;
37049;SDS011;22958;51.232;6.826;2023-09-18T08:00:18;7.47;;;2.33;;
37049;SDS011;22958;51.232;6.826;2023-09-18T08:02:44;10.17;;;2.50;;
37049;SDS011;22958;51.232;6.826;2023-09-18T08:05:11;7.95;;;2.50;;
37049;SDS011;22958;51.232;6.826;2023-09-18T08:07:36;9.00;;;2.53;;
37049;SDS011;22958;51.232;6.826;2023-09-18T08:10:03;12.33;;;1.77;;
37049;SDS011;22958;51.232;6.826;2023-09-18T08:12:33;13.55;;;2.40;;
37049;SDS011;22958;51.232;6.826;2023-09-18T08:14:59;7.47;;;2.25;;
37049;SDS011;22958;51.232;6.826;2023-09-18T08:17:25;8.25;;;2.00;;
37049;SDS011;22958;51.232;6.826;2023-09-18T08:19:51;11.32;;;1.75;;
37049;SDS011;22958;51.232;6.826;2023-09-18T08:22:18;12.65;;;2.22;;
37049;SDS011;22958;51.232;6.826;2023-09-18T08:24:45;5.25;;;1.60;;
37049;SDS011;22958;51.232;6.826;2023-09-18T08:27:13;4.15;;;1.33;;
37049;SDS011;22958;51.232;6.826;2023-09-18T08:29:41;5.13;;;1.70;;
37049;SDS011;22958;51.232;6.826;2023-09-18T08:32:07;7.47;;;1.90;;
37049;SDS011;22958;51.232;6.826;2023-09-18T08:34:33;3.92;;;1.60;;
37049;SDS011;22958;51.232;6.826;2023-09-18T08:36:59;7.60;;;1.87;;
37049;SDS011;22958;51.232;6.826;2023-09-18T08:39:24;9.93;;;1.87;;
37049;SDS011;22958;51.232;6.826;2023-09-18T08:41:50;10.77;;;2.07;;
37049;SDS011;22958;51.232;6.826;2023-09-18T08:44:20;6.00;;;1.80;;
37049;SDS011;22958;51.232;6.826;2023-09-18T08:46:51;7.68;;;1.88;;
37049;SDS011;22958;51.232;6.826;2023-09-18T08:49:16;6.30;;;2.00;;
37049;SDS011;22958;51.232;6.826;2023-09-18T08:51:43;5.40;;;2.00;;
37049;SDS011;22958;51.232;6.826;2023-09-18T08:56:36;6.93;;;1.75;;
37049;SDS011;22958;51.232;6.826;2023-09-18T08:59:01;5.07;;;1.70;;
37049;SDS011;22958;51.232;6.826;2023-09-18T09:01:27;6.03;;;1.93;;
37049;SDS011;22958;51.232;6.826;2023-09-18T09:03:52;14.33;;;3.00;;
37049;SDS011;22958;51.232;6.826;2023-09-18T09:06:18;11.67;;;2.60;;
37049;SDS011;22958;51.232;6.826;2023-09-18T09:11:10;6.28;;;1.83;;
37049;SDS011;22958;51.232;6.826;2023-09-18T09:13:36;5.70;;;1.80;;
37049;SDS011;22958;51.232;6.826;2023-09-18T09:16:01;8.63;;;2.13;;
37049;SDS011;22958;51.232;6.826;2023-09-18T09:18:28;8.05;;;2.30;;
37049;SDS011;22958;51.232;6.826;2023-09-18T09:21:01;11.57;;;2.30;;
37049;SDS011;22958;51.232;6.826;2023-09-18T09:23:44;10.15;;;1.80;;
37049;SDS011;22958;51.232;6.826;2023-09-18T09:26:14;7.65;;;1.95;;
37049;SDS011;22958;51.232;6.826;2023-09-18T09:28:42;13.05;;;1.88;;
37049;SDS011;22958;51.232;6.826;2023-09-18T09:31:09;5.90;;;1.38;;
37049;SDS011;22958;51.232;6.826;2023-09-18T09:33:35;4.95;;;1.58;;
37049;SDS011;22958;51.232;6.826;2023-09-18T09:36:04;3.50;;;1.67;;
37049;SDS011;22958;51.232;6.826;2023-09-18T09:38:31;4.75;;;1.50;;
37049;SDS011;22958;51.232;6.826;2023-09-18T09:40:59;6.32;;;1.52;;
37049;SDS011;22958;51.232;6.826;2023-09-18T09:43:26;7.05;;;1.95;;
37049;SDS011;22958;51.232;6.826;2023-09-18T09:45:59;7.38;;;1.90;;
37049;SDS011;22958;51.232;6.826;2023-09-18T09:48:26;7.03;;;1.70;;
37049;SDS011;22958;51.232;6.826;2023-09-18T09:50:52;9.10;;;1.92;;
37049;SDS011;22958;51.232;6.826;2023-09-18T09:53:41;6.20;;;2.05;;
37049;SDS011;22958;51.232;6.826;2023-09-18T09:56:07;7.18;;;1.80;;
37049;SDS011;22958;51.232;6.826;2023-09-18T09:58:33;6.70;;;1.73;;
37049;SDS011;22958;51.232;6.826;2023-09-18T10:01:01;5.00;;;1.65;;
37049;SDS011;22958;51.232;6.826;2023-09-18T10:03:33;4.53;;;1.58;;
37049;SDS011;22958;51.232;6.826;2023-09-18T10:06:01;7.30;;;2.25;;
37049;SDS011;22958;51.232;6.826;2023-09-18T10:08:29;3.47;;;1.50;;
37049;SDS011;22958;51.232;6.826;2023-09-18T10:11:02;8.15;;;1.60;;
37049;SDS011;22958;51.232;6.826;2023-09-18T10:16:04;7.00;;;1.90;;
37049;SDS011;22958;51.232;6.826;2023-09-18T10:18:54;3.78;;;1.27;;
37049;SDS011;22958;51.232;6.826;2023-09-18T10:24:25;5.88;;;1.95;;
37049;SDS011;22958;51.232;6.826;2023-09-18T10:26:59;5.03;;;1.90;;
37049;SDS011;22958;51.232;6.826;2023-09-18T10:29:28;7.70;;;1.80;;
37049;SDS011;22958;51.232;6.826;2023-09-18T10:31:55;5.55;;;1.92;;
37049;SDS011;22958;51.232;6.826;2023-09-18T10:34:21;5.30;;;1.63;;
37049;SDS011;22958;51.232;6.826;2023-09-18T10:36:49;6.50;;;2.00;;
37049;SDS011;22958;51.232;6.826;2023-09-18T10:39:17;8.23;;;1.60;;
37049;SDS011;22958;51.232;6.826;2023-09-18T10:41:48;9.77;;;1.90;;
37049;SDS011;22958;51.232;6.826;2023-09-18T10:44:18;5.95;;;1.67;;
37049;SDS011;22958;51.232;6.826;2023-09-18T10:46:45;10.05;;;2.13;;
37049;SDS011;22958;51.232;6.826;2023-09-18T10:49:12;5.35;;;1.50;;
37049;SDS011;22958;51.232;6.826;2023-09-18T10:51:38;4.93;;;1.60;;
37049;SDS011;22958;51.232;6.826;2023-09-18T10:54:11;9.10;;;1.80;;
37049;SDS011;22958;51.232;6.826;2023-09-18T10:56:41;4.70;;;2.00;;
37049;SDS011;22958;51.232;6.826;2023-09-18T10:59:07;8.30;;;1.98;;
37049;SDS011;22958;51.232;6.826;2023-09-18T11:01:34;6.25;;;1.80;;
37049;SDS011;22958;51.232;6.826;2023-09-18T11:04:01;6.18;;;1.80;;
37049;SDS011;22958;51.232;6.826;2023-09-18T11:06:29;8.15;;;1.63;;
37049;SDS011;22958;51.232;6.826;2023-09-18T11:09:07;6.13;;;1.70;;
37049;SDS011;22958;51.232;6.826;2023-09-18T11:11:34;4.43;;;1.77;;
37049;SDS011;22958;51.232;6.826;2023-09-18T11:14:01;10.77;;;1.75;;
37049;SDS011;22958;51.232;6.826;2023-09-18T11:21:25;4.47;;;1.50;;
37049;SDS011;22958;51.232;6.826;2023-09-18T11:23:59;4.30;;;1.83;;
37049;SDS011;22958;51.232;6.826;2023-09-18T11:26:31;8.45;;;2.03;;
37049;SDS011;22958;51.232;6.826;2023-09-18T11:29:04;2.97;;;1.50;;
37049;SDS011;22958;51.232;6.826;2023-09-18T11:31:47;5.15;;;2.00;;
37049;SDS011;22958;51.232;6.826;2023-09-18T11:34:28;4.50;;;1.75;;
37049;SDS011;22958;51.232;6.826;2023-09-18T11:37:00;7.55;;;2.22;;
37049;SDS011;22958;51.232;6.826;2023-09-18T11:39:38;12.35;;;2.00;;
37049;SDS011;22958;51.232;6.826;2023-09-18T11:42:08;5.82;;;2.00;;
37049;SDS011;22958;51.232;6.826;2023-09-18T11:44:35;5.55;;;1.60;;
37049;SDS011;22958;51.232;6.826;2023-09-18T11:47:06;5.18;;;2.00;;
37049;SDS011;22958;51.232;6.826;2023-09-18T11:49:33;11.68;;;1.95;;
37049;SDS011;22958;51.232;6.826;2023-09-18T11:52:00;3.65;;;1.92;;
37049;SDS011;22958;51.232;6.826;2023-09-18T11:54:27;6.45;;;2.35;;
37049;SDS011;22958;51.232;6.826;2023-09-18T11:56:54;6.60;;;1.70;;
37049;SDS011;22958;51.232;6.826;2023-09-18T11:59:32;10.90;;;1.90;;
37049;SDS011;22958;51.232;6.826;2023-09-18T12:02:00;6.20;;;1.73;;
37049;SDS011;22958;51.232;6.826;2023-09-18T12:04:30;16.38;;;2.22;;
37049;SDS011;22958;51.232;6.826;2023-09-18T12:06:58;6.43;;;1.85;;
37049;SDS011;22958;51.232;6.826;2023-09-18T12:09:26;3.22;;;1.50;;
37049;SDS011;22958;51.232;6.826;2023-09-18T12:11:52;3.67;;;1.50;;
37049;SDS011;22958;51.232;6.826;2023-09-18T12:14:20;9.68;;;2.25;;
37049;SDS011;22958;51.232;6.826;2023-09-18T12:16:46;10.38;;;1.70;;
37049;SDS011;22958;51.232;6.826;2023-09-18T12:19:17;8.55;;;1.85;;
37049;SDS011;22958;51.232;6.826;2023-09-18T12:21:45;6.18;;;1.95;;
37049;SDS011;22958;51.232;6.826;2023-09-18T12:24:15;4.25;;;1.63;;
37049;SDS011;22958;51.232;6.826;2023-09-18T12:26:59;7.10;;;1.98;;
37049;SDS011;22958;51.232;6.826;2023-09-18T12:29:25;9.23;;;1.88;;
37049;SDS011;22958;51.232;6.826;2023-09-18T12:31:51;6.60;;;1.90;;
37049;SDS011;22958;51.232;6.826;2023-09-18T12:34:17;3.65;;;1.80;;
37049;SDS011;22958;51.232;6.826;2023-09-18T12:36:46;8.20;;;1.75;;
37049;SDS011;22958;51.232;6.826;2023-09-18T12:39:16;10.77;;;1.85;;
37049;SDS011;22958;51.232;6.826;2023-09-18T12:41:45;4.38;;;2.05;;
37049;SDS011;22958;51.232;6.826;2023-09-18T12:44:12;9.48;;;1.90;;
37049;SDS011;22958;51.232;6.826;2023-09-18T12:46:39;7.47;;;1.73;;
37049;SDS011;22958;51.232;6.826;2023-09-18T12:49:14;5.20;;;1.80;;
37049;SDS011;22958;51.232;6.826;2023-09-18T12:52:00;4.35;;;1.73;;
37049;SDS011;22958;51.232;6.826;2023-09-18T12:54:36;8.82;;;1.80;;
37049;SDS011;22958;51.232;6.826;2023-09-18T12:57:04;4.80;;;1.70;;
37049;SDS011;22958;51.232;6.826;2023-09-18T12:59:34;7.80;;;2.10;;
37049;SDS011;22958;51.232;6.826;2023-09-18T13:02:02;4.50;;;1.80;;
37049;SDS011;22958;51.232;6.826;2023-09-18T13:04:32;2.88;;;1.60;;
37049;SDS011;22958;51.232;6.826;2023-09-18T13:07:11;5.50;;;2.00;;
37049;SDS011;22958;51.232;6.826;2023-09-18T13:09:38;5.88;;;1.70;;
37049;SDS011;22958;51.232;6.826;2023-09-18T13:12:07;6.55;;;1.52;;
37049;SDS011;22958;51.232;6.826;2023-09-18T13:17:36;3.25;;;1.77;;
37049;SDS011;22958;51.232;6.826;2023-09-18T13:20:09;9.85;;;1.75;;
37049;SDS011;22958;51.232;6.826;2023-09-18T13:22:40;5.03;;;1.80;;
37049;SDS011;22958;51.232;6.826;2023-09-18T13:25:07;6.18;;;1.95;;
37049;SDS011;22958;51.232;6.826;2023-09-18T13:27:36;2.97;;;1.30;;
37049;SDS011;22958;51.232;6.826;2023-09-18T13:30:02;4.82;;;1.50;;
37049;SDS011;22958;51.232;6.826;2023-09-18T13:32:40;6.70;;;1.80;;
37049;SDS011;22958;51.232;6.826;2023-09-18T13:35:06;7.07;;;1.85;;
37049;SDS011;22958;51.232;6.826;2023-09-18T13:37:33;4.28;;;1.40;;
37049;SDS011;22958;51.232;6.826;2023-09-18T13:39:59;7.50;;;2.40;;
37049;SDS011;22958;51.232;6.826;2023-09-18T13:42:31;5.03;;;2.20;;
37049;SDS011;22958;51.232;6.826;2023-09-18T13:44:57;2.58;;;1.52;;
37049;SDS011;22958;51.232;6.826;2023-09-18T13:47:25;8.25;;;1.83;;
37049;SDS011;22958;51.232;6.826;2023-09-18T13:49:54;3.85;;;1.85;;
37049;SDS011;22958;51.232;6.826;2023-09-18T13:52:24;7.00;;;2.28;;
37049;SDS011;22958;51.232;6.826;2023-09-18T13:54:51;11.07;;;2.20;;
37049;SDS011;22958;51.232;6.826;2023-09-18T13:57:17;8.68;;;2.08;;
37049;SDS011;22958;51.232;6.826;2023-09-18T13:59:47;8.95;;;2.20;;
37049;SDS011;22958;51.232;6.826;2023-09-18T14:02:14;9.55;;;2.65;;
37049;SDS011;22958;51.232;6.826;2023-09-18T14:04:40;11.82;;;1.90;;
37049;SDS011;22958;51.232;6.826;2023-09-18T14:07:06;4.82;;;1.60;;
37049;SDS011;22958;51.232;6.826;2023-09-18T14:09:33;5.25;;;1.67;;
37049;SDS011;22958;51.232;6.826;2023-09-18T14:11:59;4.40;;;1.50;;
37049;SDS011;22958;51.232;6.826;2023-09-18T14:14:25;4.05;;;1.80;;
37049;SDS011;22958;51.232;6.826;2023-09-18T14:16:51;8.55;;;2.00;;
37049;SDS011;22958;51.232;6.826;2023-09-18T14:19:17;5.03;;;1.58;;
37049;SDS011;22958;51.232;6.826;2023-09-18T14:21:43;6.35;;;1.55;;
37049;SDS011;22958;51.232;6.826;2023-09-18T14:24:08;3.90;;;1.90;;
37049;SDS011;22958;51.232;6.826;2023-09-18T14:26:35;2.78;;;1.13;;
37049;SDS011;22958;51.232;6.826;2023-09-18T14:29:06;4.82;;;1.70;;
37049;SDS011;22958;51.232;6.826;2023-09-18T14:31:33;6.72;;;1.80;;
37049;SDS011;22958;51.232;6.826;2023-09-18T14:33:58;7.00;;;2.05;;
37049;SDS011;22958;51.232;6.826;2023-09-18T14:36:25;5.68;;;1.70;;
37049;SDS011;22958;51.232;6.826;2023-09-18T14:38:51;4.28;;;1.85;;
37049;SDS011;22958;51.232;6.826;2023-09-18T14:41:16;3.70;;;1.77;;
37049;SDS011;22958;51.232;6.826;2023-09-18T14:43:43;7.40;;;1.80;;
37049;SDS011;22958;51.232;6.826;2023-09-18T14:46:10;3.30;;;1.38;;
37049;SDS011;22958;51.232;6.826;2023-09-18T14:48:35;3.15;;;2.08;;
37049;SDS011;22958;51.232;6.826;2023-09-18T14:51:01;4.43;;;1.90;;
37049;SDS011;22958;51.232;6.826;2023-09-18T14:53:27;4.05;;;1.75;;
37049;SDS011;22958;51.232;6.826;2023-09-18T14:55:53;7.88;;;1.83;;
37049;SDS011;22958;51.232;6.826;2023-09-18T14:58:20;6.93;;;1.80;;
37049;SDS011;22958;51.232;6.826;2023-09-18T15:00:48;9.15;;;1.73;;
37049;SDS011;22958;51.232;6.826;2023-09-18T15:03:14;12.18;;;1.60;;
37049;SDS011;22958;51.232;6.826;2023-09-18T15:05:39;7.15;;;1.88;;
37049;SDS011;22958;51.232;6.826;2023-09-18T15:10:31;5.68;;;1.65;;
37049;SDS011;22958;51.232;6.826;2023-09-18T15:12:57;4.28;;;1.85;;
37049;SDS011;22958;51.232;6.826;2023-09-18T15:15:22;7.80;;;1.58;;
37049;SDS011;22958;51.232;6.826;2023-09-18T15:17:48;8.07;;;1.70;;
37049;SDS011;22958;51.232;6.826;2023-09-18T15:20:17;3.67;;;1.73;;